Time;durP1;ratioP1;P1;durP2;ratioP2;P2;SDS_P1;SDS_P2;PMS_P1;PMS_P2;Temp;Humidity;BMP_temperature;BMP_pressure;BME280_temperature;BME280_humidity;BME280_pressure;Samples;Min_cycle;Max_cycle;Signal;HPM_P1;HPM_P2
2023/01/25 00:00:05;;;;;;;3.67;3.37;;;;;;;3.34;79.61;96173.53;5031010;28;20199;-64
2023/01/25 00:02:32;;;;;;;3.03;2.80;;;;;;;3.27;80.14;96170.09;5030244;28;20203;-64
2023/01/25 00:04:59;;;;;;;3.20;3.00;;;;;;;3.27;80.11;96167.56;5029720;28;20207;-65
2023/01/25 00:07:26;;;;;;;2.30;2.20;;;;;;;3.31;80.29;96161.75;5029346;28;20207;-65
2023/01/25 00:09:52;;;;;;;3.37;3.07;;;;;;;3.27;80.57;96164.22;5028888;28;20218;-65
2023/01/25 00:12:21;;;;;;;5.37;2.70;;;;;;;3.28;81.17;96161.72;5030883;28;20671;-65
2023/01/25 00:14:47;;;;;;;3.20;2.90;;;;;;;3.36;80.66;96162.66;5028566;28;20214;-66
2023/01/25 00:17:14;;;;;;;2.95;2.65;;;;;;;3.45;79.87;96164.47;5029859;28;20230;-66
2023/01/25 00:19:41;;;;;;;3.30;3.00;;;;;;;3.32;80.10;96170.16;5029041;28;20203;-67
2023/01/25 00:22:08;;;;;;;3.63;2.80;;;;;;;3.39;79.95;96170.25;5030880;28;20214;-67
2023/01/25 00:24:34;;;;;;;7.57;2.73;;;;;;;3.24;81.15;96165.03;5029232;28;20203;-64
2023/01/25 00:27:02;;;;;;;3.85;3.00;;;;;;;3.23;81.82;96163.34;5029606;28;20657;-65
2023/01/25 00:29:30;;;;;;;2.83;2.63;;;;;;;3.34;80.85;96166.84;5030014;28;20234;-64
2023/01/25 00:32:18;;;;;;;3.10;2.80;;;;;;;3.44;80.42;96159.41;5029837;28;20242;-66
2023/01/25 00:34:47;;;;;;;3.43;3.00;;;;;;;3.38;80.24;96163.53;5028415;28;20226;-65
2023/01/25 00:37:20;;;;;;;2.90;2.70;;;;;;;3.26;80.78;96165.88;5029437;28;20211;-65
2023/01/25 00:39:47;;;;;;;2.65;2.45;;;;;;;3.26;80.27;96157.50;5028531;28;20685;-64
2023/01/25 00:42:16;;;;;;;4.30;3.13;;;;;;;3.34;81.01;96166.00;5029485;28;20238;-65
2023/01/25 00:44:44;;;;;;;3.57;3.27;;;;;;;3.48;79.46;96166.97;5029089;28;20207;-64
2023/01/25 00:47:12;;;;;;;3.60;3.30;;;;;;;3.27;79.21;96166.72;5029855;28;20211;-65
2023/01/25 00:49:40;;;;;;;3.17;2.87;;;;;;;3.26;79.65;96168.41;5029918;28;20241;-65
2023/01/25 00:52:08;;;;;;;3.90;3.07;;;;;;;3.23;79.41;96170.88;5028377;28;20207;-64
2023/01/25 00:54:34;;;;;;;3.67;3.03;;;;;;;3.24;79.89;96167.53;5028446;28;20279;-63
2023/01/25 00:57:01;;;;;;;3.13;2.90;;;;;;;3.10;80.19;96165.69;5029219;28;20713;-65
2023/01/25 00:59:28;;;;;;;3.67;2.90;;;;;;;3.00;80.25;96169.72;5026515;28;20256;-65
2023/01/25 01:01:57;;;;;;;3.47;2.70;;;;;;;3.10;79.92;96176.56;5029321;28;20215;-64
2023/01/25 01:04:24;;;;;;;4.90;3.10;;;;;;;3.11;79.89;96170.72;5026931;28;20206;-67
2023/01/25 01:06:52;;;;;;;2.93;2.33;;;;;;;3.10;80.15;96171.56;5026773;28;20213;-65
2023/01/25 01:09:20;;;;;;;2.93;2.73;;;;;;;3.10;79.78;96159.00;5025023;28;20336;-66
2023/01/25 01:11:47;;;;;;;3.23;2.93;;;;;;;3.24;80.08;96167.53;5026066;28;20214;-65
2023/01/25 01:14:14;;;;;;;2.70;2.50;;;;;;;3.11;79.63;96173.25;5025835;28;20924;-66
2023/01/25 01:16:41;;;;;;;2.63;2.43;;;;;;;3.10;79.88;96169.03;5028005;28;20203;-64
2023/01/25 01:19:10;;;;;;;2.77;2.10;;;;;;;3.18;80.16;96172.50;5026954;28;20211;-64
2023/01/25 01:21:37;;;;;;;2.70;2.50;;;;;;;3.13;79.88;96163.22;5026750;28;20218;-64
2023/01/25 01:24:04;;;;;;;2.60;2.40;;;;;;;3.19;79.27;96160.78;5026304;28;20219;-64
2023/01/25 01:26:31;;;;;;;2.27;2.17;;;;;;;3.14;79.04;96153.19;5027315;28;20211;-62
2023/01/25 01:28:58;;;;;;;2.80;2.60;;;;;;;3.09;79.95;96152.28;5024891;28;20219;-65
2023/01/25 01:31:25;;;;;;;3.07;2.87;;;;;;;3.07;79.00;96143.88;5026971;28;20680;-65
2023/01/25 01:33:54;;;;;;;2.10;1.97;;;;;;;3.02;79.09;96155.53;5027950;28;20218;-65
2023/01/25 01:36:24;;;;;;;2.63;2.43;;;;;;;2.91;79.39;96159.59;5024298;28;20215;-65
2023/01/25 01:38:51;;;;;;;3.70;2.73;;;;;;;2.81;79.32;96145.22;5025014;28;20222;-65
2023/01/25 01:41:19;;;;;;;3.57;2.50;;;;;;;2.88;80.47;96149.50;5025030;28;20665;-65
2023/01/25 01:43:46;;;;;;;2.40;2.20;;;;;;;2.93;80.09;96147.91;5026661;28;20203;-67
2023/01/25 01:46:17;;;;;;;2.77;2.57;;;;;;;2.93;80.17;96142.88;5024757;28;20211;-65
2023/01/25 01:48:47;;;;;;;2.47;2.27;;;;;;;2.84;80.84;96145.25;5028556;28;20231;-65
2023/01/25 01:51:19;;;;;;;3.20;2.90;;;;;;;2.87;81.20;96142.78;5027054;28;20210;-65
2023/01/25 01:53:51;;;;;;;3.33;2.40;;;;;;;2.89;80.99;96141.16;5026343;28;20203;-66
2023/01/25 01:56:23;;;;;;;2.20;2.00;;;;;;;2.98;80.83;96143.75;5026537;28;20199;-63
2023/01/25 01:58:53;;;;;;;2.33;2.17;;;;;;;2.93;80.50;96142.88;5026781;28;20272;-65
2023/01/25 02:01:20;;;;;;;2.53;2.33;;;;;;;2.88;80.78;96145.31;5028114;28;20207;-66
2023/01/25 02:03:48;;;;;;;3.00;2.60;;;;;;;2.88;81.89;96145.31;5027099;28;20207;-63
2023/01/25 02:06:21;;;;;;;3.13;2.47;;;;;;;2.91;82.58;96145.38;5027289;28;20202;-65
2023/01/25 02:08:52;;;;;;;2.47;2.27;;;;;;;2.88;81.08;96145.31;5028245;28;20739;-68
2023/01/25 02:11:20;;;;;;;2.30;2.10;;;;;;;2.87;81.97;96147.81;5027860;28;20195;-64
2023/01/25 02:13:48;;;;;;;2.17;2.07;;;;;;;2.97;81.17;96142.91;5026295;28;20925;-66
2023/01/25 02:16:19;;;;;;;2.90;2.70;;;;;;;3.08;80.65;96138.88;5028584;28;20206;-65
2023/01/25 02:18:46;;;;;;;2.20;1.97;;;;;;;3.09;80.29;96142.25;5027076;28;20849;-63
2023/01/25 02:21:13;;;;;;;2.13;2.00;;;;;;;3.06;79.76;96150.56;5025369;28;20222;-69
2023/01/25 02:23:47;;;;;;;2.97;2.77;;;;;;;2.99;80.37;96145.44;5026155;28;20586;-69
2023/01/25 02:26:17;;;;;;;2.43;2.13;;;;;;;3.06;79.59;96139.69;5026641;28;20206;-65
2023/01/25 02:28:50;;;;;;;2.20;2.10;;;;;;;3.05;80.06;96148.03;5028221;28;20649;-65
2023/01/25 02:31:17;;;;;;;3.07;2.10;;;;;;;2.90;80.53;96147.84;5021521;28;20451;-67
2023/01/25 02:33:44;;;;;;;2.60;2.40;;;;;;;2.85;80.59;96139.41;5026452;28;20203;-64
2023/01/25 02:36:21;;;;;;;2.90;2.03;;;;;;;2.80;80.66;96141.00;5023835;28;20216;-63
2023/01/25 02:38:53;;;;;;;2.80;2.60;;;;;;;2.90;80.54;96137.81;5026440;28;20268;-69
2023/01/25 02:41:25;;;;;;;2.47;2.27;;;;;;;2.83;81.56;96136.03;5024956;28;20288;-64
2023/01/25 02:43:53;;;;;;;2.40;2.20;;;;;;;2.81;81.26;96141.03;5025710;28;20815;-67
2023/01/25 02:46:26;;;;;;;2.43;2.23;;;;;;;2.85;81.32;96129.38;5025662;28;20771;-67
2023/01/25 02:48:53;;;;;;;2.60;2.40;;;;;;;2.78;82.03;96133.47;5025492;28;20223;-67
2023/01/25 02:51:21;;;;;;;2.37;2.17;;;;;;;2.86;81.79;96131.91;5026727;28;20299;-68
2023/01/25 02:53:48;;;;;;;3.13;2.93;;;;;;;2.85;80.74;96132.72;5026615;28;20244;-65
2023/01/25 02:56:14;;;;;;;3.80;2.23;;;;;;;2.97;80.62;96127.84;5024737;28;20269;-65
2023/01/25 02:58:42;;;;;;;2.47;2.27;;;;;;;3.00;79.92;96127.88;5026014;28;20210;-65
2023/01/25 03:01:10;;;;;;;3.37;2.83;;;;;;;3.02;79.18;96132.94;5026125;28;20206;-66
2023/01/25 03:03:37;;;;;;;2.23;2.03;;;;;;;2.92;79.37;96136.16;5025941;28;20294;-61
2023/01/25 03:06:04;;;;;;;2.27;2.17;;;;;;;2.79;79.51;96131.78;5025743;28;20218;-64
2023/01/25 03:08:30;;;;;;;2.60;2.40;;;;;;;2.76;80.18;96137.63;5027335;28;20261;-64
2023/01/25 03:10:58;;;;;;;3.80;2.60;;;;;;;2.84;79.79;96141.06;5026726;28;20269;-64
2023/01/25 03:13:25;;;;;;;2.10;2.00;;;;;;;2.89;79.71;96136.97;5027839;28;20669;-67
2023/01/25 03:15:59;;;;;;;3.03;2.83;;;;;;;2.88;79.45;96134.44;5026309;28;20292;-64
2023/01/25 03:18:26;;;;;;;4.97;2.83;;;;;;;2.89;79.16;96136.13;5028137;28;21625;-68
2023/01/25 03:20:52;;;;;;;2.70;2.50;;;;;;;2.90;79.48;96138.66;5027451;28;20207;-65
2023/01/25 03:23:19;;;;;;;3.07;2.80;;;;;;;2.88;78.43;96135.28;5027352;28;20213;-67
2023/01/25 03:25:46;;;;;;;3.37;2.97;;;;;;;2.92;79.36;96131.16;5026249;28;20211;-66
2023/01/25 03:28:13;;;;;;;3.47;3.17;;;;;;;2.95;79.10;96133.69;5025578;28;20308;-66
2023/01/25 03:30:40;;;;;;;3.23;2.43;;;;;;;2.95;78.92;96137.06;5026826;28;20292;-67
2023/01/25 03:33:08;;;;;;;4.87;3.03;;;;;;;3.06;78.30;96129.63;5026740;28;20288;-63
2023/01/25 03:35:34;;;;;;;2.43;2.27;;;;;;;3.03;78.04;96127.09;5027018;28;20207;-67
2023/01/25 03:38:01;;;;;;;2.13;2.03;;;;;;;3.10;77.24;96138.91;5027074;28;20204;-67
2023/01/25 03:40:28;;;;;;;3.37;2.30;;;;;;;2.99;78.02;96143.78;5027795;28;20227;-66
2023/01/25 03:42:55;;;;;;;2.60;2.40;;;;;;;2.99;77.38;96130.38;5026493;28;20223;-68
2023/01/25 03:45:21;;;;;;;3.30;2.77;;;;;;;3.02;77.60;96127.91;5027129;28;20641;-66
2023/01/25 03:47:48;;;;;;;2.90;2.60;;;;;;;2.89;77.59;96131.94;5026468;28;20562;-64
2023/01/25 03:50:16;;;;;;;3.10;2.67;;;;;;;2.84;77.92;96133.53;5027540;28;20219;-67
2023/01/25 03:52:58;;;;;;;3.13;2.83;;;;;;;2.88;76.60;96129.41;5027616;28;20662;-68
2023/01/25 03:55:25;;;;;;;2.73;2.50;;;;;;;2.83;76.78;96131.00;5029360;28;20719;-66
2023/01/25 03:57:52;;;;;;;3.33;3.03;;;;;;;2.84;77.73;96127.69;5030017;28;20298;-65
2023/01/25 04:00:19;;;;;;;3.00;2.80;;;;;;;2.92;77.70;96121.09;5031062;28;20242;-65
2023/01/25 04:02:46;;;;;;;4.10;3.67;;;;;;;3.04;77.32;96121.25;5032483;28;20204;-68
2023/01/25 04:05:13;;;;;;;3.50;3.20;;;;;;;3.08;77.15;96113.78;5031007;28;20195;-64
2023/01/25 04:07:41;;;;;;;3.40;3.20;;;;;;;3.02;77.67;96112.84;5030978;28;20203;-65
2023/01/25 04:10:09;;;;;;;5.10;2.57;;;;;;;3.04;77.07;96103.66;5031304;28;20215;-66
2023/01/25 04:12:37;;;;;;;3.30;3.00;;;;;;;2.93;77.17;96112.75;5031276;28;20214;-66
2023/01/25 04:15:04;;;;;;;4.13;3.83;;;;;;;3.00;77.44;96110.31;5029134;28;20306;-65
2023/01/25 04:17:31;;;;;;;8.97;4.43;;;;;;;2.98;77.08;96111.97;5030785;28;20199;-66
2023/01/25 04:19:57;;;;;;;4.93;4.03;;;;;;;2.99;77.77;96113.66;5030418;28;20211;-68
2023/01/25 04:22:24;;;;;;;5.00;4.30;;;;;;;2.96;77.04;96100.22;5031671;28;20642;-66
2023/01/25 04:24:52;;;;;;;9.77;5.70;;;;;;;3.10;76.30;96115.44;5030544;28;20199;-64
2023/01/25 04:27:19;;;;;;;6.40;4.87;;;;;;;2.86;76.41;96121.03;5029362;28;21049;-66
2023/01/25 04:29:46;;;;;;;5.57;4.13;;;;;;;2.82;77.43;96115.09;5029679;28;20593;-66
2023/01/25 04:32:12;;;;;;;5.73;4.93;;;;;;;2.82;78.16;96122.63;5030267;28;20663;-66
2023/01/25 04:34:39;;;;;;;4.97;4.47;;;;;;;2.88;78.28;96121.88;5030593;28;20264;-66
2023/01/25 04:37:06;;;;;;;5.80;4.50;;;;;;;3.01;77.45;96113.66;5028007;28;20202;-65
2023/01/25 04:39:33;;;;;;;5.27;4.77;;;;;;;3.09;78.23;96119.63;5028449;28;20223;-67
2023/01/25 04:42:01;;;;;;;4.43;3.63;;;;;;;3.16;77.37;96128.09;5029329;28;20629;-65
2023/01/25 04:44:27;;;;;;;4.70;3.60;;;;;;;3.07;77.12;96126.31;5029748;28;20292;-67
2023/01/25 04:46:54;;;;;;;4.40;4.00;;;;;;;2.98;78.69;96126.19;5029760;28;20684;-68
2023/01/25 04:49:21;;;;;;;4.43;4.03;;;;;;;3.01;78.68;96127.06;5029342;28;20223;-67
2023/01/25 04:51:48;;;;;;;6.05;4.55;;;;;;;3.19;77.64;96128.97;5030382;28;20211;-67
2023/01/25 04:54:15;;;;;;;5.13;4.82;;;;;;;3.26;78.15;96128.19;5029064;28;20206;-65
2023/01/25 04:56:41;;;;;;;4.30;3.93;;;;;;;3.24;78.06;96122.31;5029865;28;20252;-66
2023/01/25 04:59:11;;;;;;;5.47;4.53;;;;;;;3.23;78.84;96123.13;5029142;28;20206;-64
2023/01/25 05:01:37;;;;;;;4.73;4.33;;;;;;;3.31;78.63;96125.75;5029261;28;20577;-65
2023/01/25 05:04:04;;;;;;;5.00;4.33;;;;;;;3.12;78.54;96119.69;5028804;28;20214;-63
2023/01/25 05:06:31;;;;;;;4.40;4.00;;;;;;;3.12;79.58;96119.69;5029292;28;20676;-64
2023/01/25 05:08:57;;;;;;;5.20;3.97;;;;;;;3.19;79.32;96125.63;5028319;28;20211;-63
2023/01/25 05:11:24;;;;;;;4.17;3.87;;;;;;;3.30;79.27;96114.84;5028714;28;20223;-65
2023/01/25 05:13:53;;;;;;;5.00;4.50;;;;;;;3.31;79.69;96115.69;5029203;28;20627;-65
2023/01/25 05:16:21;;;;;;;5.30;4.70;;;;;;;3.23;79.95;96118.13;5027506;28;20442;-62
2023/01/25 05:18:48;;;;;;;4.93;4.53;;;;;;;3.16;79.91;96115.53;5029100;28;20207;-64
2023/01/25 05:23:55;;;;;;;10.87;8.17;;;;;;;3.24;80.76;96109.75;5028613;28;20577;-66
2023/01/25 05:29:07;;;;;;;6.60;5.67;;;;;;;3.42;80.30;96106.63;5028906;28;20606;-68
2023/01/25 05:31:35;;;;;;;10.60;6.33;;;;;;;3.44;80.74;96101.63;5028781;28;20754;-68
2023/01/25 05:34:02;;;;;;;13.00;7.80;;;;;;;3.52;80.44;96110.06;5029390;28;21475;-67
2023/01/25 05:36:29;;;;;;;16.83;8.60;;;;;;;3.51;79.99;96110.88;5029030;28;20226;-67
2023/01/25 05:38:55;;;;;;;18.23;8.30;;;;;;;3.58;80.21;96110.13;5029329;28;20226;-66
2023/01/25 05:41:22;;;;;;;12.52;7.90;;;;;;;3.59;80.15;96107.63;5028060;28;20640;-68
2023/01/25 05:43:49;;;;;;;11.23;6.97;;;;;;;3.64;80.24;96116.06;5029352;28;20203;-70
2023/01/25 05:46:16;;;;;;;9.23;6.80;;;;;;;3.59;80.47;96112.66;5029325;28;20203;-66
2023/01/25 05:48:44;;;;;;;10.60;7.27;;;;;;;3.57;80.89;96113.47;5029583;28;20207;-66
2023/01/25 05:51:11;;;;;;;11.47;7.43;;;;;;;3.50;81.82;96116.72;5027704;28;20230;-67
2023/01/25 05:53:37;;;;;;;11.97;8.03;;;;;;;3.59;81.46;96111.81;5028774;28;20253;-67
2023/01/25 05:56:05;;;;;;;10.20;8.17;;;;;;;3.61;81.63;96120.22;5027494;28;20202;-70
2023/01/25 05:58:32;;;;;;;10.87;8.27;;;;;;;3.61;81.75;96120.22;5028259;28;20398;-66
2023/01/25 06:01:00;;;;;;;12.73;8.90;;;;;;;3.57;81.82;96128.53;5028558;28;20199;-65
2023/01/25 06:03:26;;;;;;;12.33;8.40;;;;;;;3.47;82.07;96131.78;5029049;28;20222;-68
2023/01/25 06:05:56;;;;;;;12.93;8.77;;;;;;;3.35;82.43;96120.78;5028092;28;20210;-67
2023/01/25 06:08:23;;;;;;;11.53;9.57;;;;;;;3.41;83.05;96120.84;5028736;28;20210;-68
2023/01/25 06:10:50;;;;;;;14.23;10.43;;;;;;;3.46;82.60;96115.03;5027756;28;20276;-64
2023/01/25 06:13:17;;;;;;;14.13;9.53;;;;;;;3.53;82.54;96121.78;5027880;28;20337;-65
2023/01/25 06:15:51;;;;;;;11.33;8.10;;;;;;;3.59;82.00;96126.91;5027335;28;20211;-67
2023/01/25 06:18:18;;;;;;;7.00;5.63;;;;;;;3.69;80.32;96128.69;5028940;28;20398;-69
2023/01/25 06:20:44;;;;;;;5.30;4.70;;;;;;;3.57;80.20;96128.53;5028918;28;20253;-66
2023/01/25 06:23:12;;;;;;;5.70;5.20;;;;;;;3.57;80.13;96126.03;5028343;28;20269;-66
2023/01/25 06:25:39;;;;;;;5.63;5.07;;;;;;;3.33;81.38;96129.97;5028142;28;20214;-65
2023/01/25 06:28:06;;;;;;;10.43;7.27;;;;;;;3.36;82.51;96135.03;5026983;28;20211;-65
2023/01/25 06:30:33;;;;;;;9.37;7.00;;;;;;;3.38;82.52;96128.34;5027836;28;20231;-68
2023/01/25 06:33:01;;;;;;;8.93;6.77;;;;;;;3.46;82.26;96128.44;5027513;28;20365;-68
2023/01/25 06:35:28;;;;;;;7.72;6.97;;;;;;;3.55;81.54;96125.16;5027970;28;20214;-65
2023/01/25 06:37:55;;;;;;;11.93;8.03;;;;;;;3.40;82.10;96126.72;5027177;28;20600;-66
2023/01/25 06:40:24;;;;;;;10.70;8.15;;;;;;;3.53;82.59;96124.31;5028365;28;20777;-68
2023/01/25 06:42:51;;;;;;;11.63;7.93;;;;;;;3.66;81.62;96121.09;5027644;28;20207;-63
2023/01/25 06:45:18;;;;;;;14.83;7.20;;;;;;;3.72;81.66;96119.47;5028518;28;20211;-67
2023/01/25 06:47:45;;;;;;;11.17;7.23;;;;;;;3.78;82.03;96122.88;5028515;28;20211;-69
2023/01/25 06:50:12;;;;;;;12.60;7.93;;;;;;;3.75;81.59;96124.53;5028126;28;20330;-69
2023/01/25 06:52:39;;;;;;;8.80;6.85;;;;;;;3.55;82.61;96121.00;5026500;28;20981;-64
2023/01/25 06:55:11;;;;;;;10.23;7.05;;;;;;;3.32;81.93;96118.22;5028390;28;20222;-64
2023/01/25 06:57:39;;;;;;;13.03;7.20;;;;;;;3.40;82.04;96123.34;5027812;28;20191;-65
2023/01/25 07:00:07;;;;;;;14.70;8.77;;;;;;;3.36;82.02;96129.16;5028424;28;20264;-65
2023/01/25 07:02:35;;;;;;;8.07;6.50;;;;;;;3.32;82.27;96123.25;5027536;28;20210;-64
2023/01/25 07:05:02;;;;;;;7.47;6.67;;;;;;;3.37;82.02;96126.66;5027717;28;20722;-65
2023/01/25 07:07:29;;;;;;;6.17;5.57;;;;;;;3.19;83.37;96123.97;5027612;28;20203;-67
2023/01/25 07:09:57;;;;;;;7.90;6.50;;;;;;;3.29;83.22;96123.22;5028370;28;20222;-69
2023/01/25 07:12:25;;;;;;;8.67;6.10;;;;;;;3.24;82.94;96119.81;5027623;28;20219;-67
2023/01/25 07:14:53;;;;;;;12.60;6.43;;;;;;;3.14;83.00;96118.03;5027164;28;20584;-66
2023/01/25 07:17:20;;;;;;;7.97;5.60;;;;;;;3.33;82.64;96122.44;5027410;28;20284;-63
2023/01/25 07:19:47;;;;;;;8.13;5.40;;;;;;;3.45;82.34;96116.72;5027290;28;20702;-65
2023/01/25 07:22:14;;;;;;;11.47;5.93;;;;;;;3.38;81.42;96132.53;5027639;28;20214;-68
2023/01/25 07:24:42;;;;;;;9.83;5.70;;;;;;;3.08;81.66;96133.84;5026953;28;20203;-69
2023/01/25 07:27:08;;;;;;;9.27;5.87;;;;;;;2.82;81.45;96115.09;5025946;28;20206;-65
2023/01/25 07:29:35;;;;;;;7.13;6.00;;;;;;;2.83;82.47;96136.88;5030916;28;20210;-63
2023/01/25 07:32:05;;;;;;;7.17;5.70;;;;;;;2.90;82.35;96142.84;5030082;28;20242;-66
2023/01/25 07:34:32;;;;;;;11.00;6.63;;;;;;;2.94;82.61;96132.00;5030822;28;20213;-68
2023/01/25 07:36:58;;;;;;;10.00;6.03;;;;;;;3.10;82.41;96135.53;5031589;28;20215;-68
2023/01/25 07:39:25;;;;;;;6.60;5.90;;;;;;;2.99;82.15;96138.75;5031270;28;20712;-65
2023/01/25 07:41:52;;;;;;;4.60;4.20;;;;;;;2.88;81.83;96145.31;5030848;28;20199;-66
2023/01/25 07:44:19;;;;;;;6.87;4.80;;;;;;;2.74;82.13;96147.63;5031069;28;20276;-69
2023/01/25 07:46:46;;;;;;;5.27;4.60;;;;;;;2.62;82.63;96149.97;5031587;28;20288;-67
2023/01/25 07:49:14;;;;;;;6.47;5.03;;;;;;;2.72;82.92;96149.28;5031265;28;20203;-68
2023/01/25 07:51:41;;;;;;;5.00;4.47;;;;;;;2.72;82.52;96149.28;5030948;28;20227;-69
2023/01/25 07:54:10;;;;;;;5.40;4.90;;;;;;;2.78;82.20;96150.19;5029859;28;20207;-69
2023/01/25 07:56:39;;;;;;;4.87;4.33;;;;;;;2.65;82.31;96142.50;5029834;28;20207;-66
2023/01/25 07:59:07;;;;;;;13.37;3.60;;;;;;;2.77;81.49;96141.81;5030749;28;20619;-65
2023/01/25 08:01:35;;;;;;;7.20;4.23;;;;;;;2.63;82.19;96149.16;5030338;28;20226;-69
2023/01/25 08:04:03;;;;;;;5.40;4.90;;;;;;;2.41;83.28;96147.16;5029485;28;20256;-68
2023/01/25 08:06:37;;;;;;;6.87;5.90;;;;;;;2.32;83.45;96147.00;5031692;28;20703;-70
2023/01/25 08:09:07;;;;;;;6.80;5.03;;;;;;;2.40;83.59;96140.44;5030257;28;21413;-66
2023/01/25 08:11:34;;;;;;;7.23;5.47;;;;;;;2.44;83.21;96146.38;5030779;28;20235;-67
2023/01/25 08:14:02;;;;;;;8.53;4.87;;;;;;;2.36;82.66;96147.09;5029521;28;20207;-66
2023/01/25 08:16:29;;;;;;;6.57;5.03;;;;;;;2.44;83.84;96134.66;5028806;28;20207;-68
2023/01/25 08:18:57;;;;;;;8.10;5.43;;;;;;;2.66;83.10;96138.31;5029757;28;20635;-68
2023/01/25 08:21:28;;;;;;;7.17;5.70;;;;;;;2.57;82.88;96139.03;5030457;28;20751;-66
2023/01/25 08:23:57;;;;;;;7.67;5.27;;;;;;;2.51;82.77;96136.41;5032057;28;20210;-68
2023/01/25 08:26:24;;;;;;;5.73;5.23;;;;;;;2.36;83.71;96138.72;5029384;28;20214;-67
2023/01/25 08:28:52;;;;;;;8.43;5.07;;;;;;;2.24;84.18;96138.50;5030721;28;21099;-67
2023/01/25 08:31:21;;;;;;;6.00;5.43;;;;;;;2.23;84.16;96146.84;5029628;28;20245;-62
2023/01/25 08:33:48;;;;;;;5.40;4.90;;;;;;;2.41;84.13;96137.13;5030812;28;20581;-69
2023/01/25 08:36:17;;;;;;;7.53;4.53;;;;;;;2.41;82.85;96137.13;5029574;28;20218;-68
2023/01/25 08:38:43;;;;;;;5.57;5.07;;;;;;;2.44;83.18;96129.66;5029992;28;20285;-67
2023/01/25 08:41:14;;;;;;;6.00;5.50;;;;;;;2.37;82.68;96135.38;5030689;28;21325;-66
2023/01/25 08:43:41;;;;;;;7.50;5.47;;;;;;;2.50;82.56;96136.41;5030534;28;21018;-66
2023/01/25 08:46:08;;;;;;;5.40;4.90;;;;;;;2.54;82.69;96133.97;5029080;28;20264;-66
2023/01/25 08:48:35;;;;;;;6.57;5.97;;;;;;;2.71;82.41;96127.53;5030237;28;20214;-68
2023/01/25 08:51:02;;;;;;;6.17;5.57;;;;;;;2.80;82.37;96131.81;5030478;28;20219;-67
2023/01/25 08:53:30;;;;;;;7.60;5.97;;;;;;;2.64;81.72;96133.28;5030090;28;20264;-67
2023/01/25 08:55:57;;;;;;;6.03;5.43;;;;;;;2.48;83.00;96133.88;5029629;28;20210;-67
2023/01/25 08:58:25;;;;;;;6.87;5.97;;;;;;;2.56;82.58;96132.31;5029535;28;20564;-64
2023/01/25 09:00:51;;;;;;;5.80;4.80;;;;;;;2.66;82.78;96139.16;5029853;28;20210;-65
2023/01/25 09:03:18;;;;;;;6.00;5.40;;;;;;;2.91;81.92;96134.47;5030727;28;20203;-66
2023/01/25 09:05:45;;;;;;;6.50;5.90;;;;;;;3.07;80.61;96131.31;5029414;28;20588;-69
2023/01/25 09:08:12;;;;;;;7.80;5.67;;;;;;;3.15;80.18;96129.75;5029180;28;20214;-64
2023/01/25 09:10:38;;;;;;;6.10;5.60;;;;;;;3.06;80.21;96130.47;5029419;28;20207;-68
2023/01/25 09:13:05;;;;;;;6.37;5.67;;;;;;;2.88;81.51;96136.94;5028921;28;20277;-68
2023/01/25 09:15:33;;;;;;;9.23;5.67;;;;;;;2.77;81.75;96130.91;5029126;28;20211;-69
2023/01/25 09:18:00;;;;;;;7.37;6.50;;;;;;;2.88;81.95;96130.25;5028599;28;20203;-65
2023/01/25 09:20:27;;;;;;;5.93;5.37;;;;;;;2.92;81.87;96116.94;5029555;28;20304;-64
2023/01/25 09:22:55;;;;;;;6.93;6.27;;;;;;;3.06;81.87;96115.41;5029750;28;20284;-66
2023/01/25 09:25:22;;;;;;;10.80;6.37;;;;;;;3.11;81.79;96115.47;5028903;28;20225;-66
2023/01/25 09:27:49;;;;;;;8.50;5.87;;;;;;;2.96;82.33;96113.63;5026696;28;20644;-67
2023/01/25 09:30:16;;;;;;;9.43;6.73;;;;;;;2.85;82.71;96116.81;5028382;28;20628;-67
2023/01/25 09:32:44;;;;;;;7.17;6.57;;;;;;;2.78;83.78;96097.47;5027869;28;20247;-66
2023/01/25 09:35:11;;;;;;;6.70;6.10;;;;;;;2.82;83.50;96100.03;5029055;28;20211;-68
2023/01/25 09:37:38;;;;;;;7.33;6.03;;;;;;;3.00;83.81;96091.88;5028536;28;20206;-64
2023/01/25 09:40:06;;;;;;;6.53;5.93;;;;;;;2.83;83.54;96088.34;5028278;28;20231;-67
2023/01/25 09:42:49;;;;;;;6.20;5.67;;;;;;;2.73;84.12;96100.75;5028702;28;20685;-68
2023/01/25 09:45:27;;;;;;;5.63;5.13;;;;;;;2.71;84.28;96086.53;5029127;28;20272;-68
2023/01/25 09:48:04;;;;;;;12.10;6.13;;;;;;;2.76;85.03;96079.03;5025789;28;20279;-70
2023/01/25 09:50:37;;;;;;;7.63;6.73;;;;;;;2.64;85.21;96080.59;5027048;28;20271;-64
2023/01/25 09:53:32;;;;;;;8.17;6.33;;;;;;;2.66;85.30;96068.91;5029196;28;20983;-66
2023/01/25 09:56:03;;;;;;;8.33;6.47;;;;;;;2.70;85.20;96072.28;5024015;28;20216;-65
2023/01/25 09:58:34;;;;;;;6.23;5.67;;;;;;;2.77;84.88;96065.66;5025294;28;20221;-65
2023/01/25 10:01:18;;;;;;;7.40;6.50;;;;;;;2.96;84.63;96060.91;5027766;28;20203;-63
2023/01/25 10:03:54;;;;;;;7.87;6.57;;;;;;;3.01;84.25;96055.91;5025289;28;20767;-67
2023/01/25 10:06:23;;;;;;;7.10;6.40;;;;;;;3.18;84.40;96049.44;5027018;28;20674;-63
2023/01/25 10:09:00;;;;;;;6.17;5.57;;;;;;;3.15;83.09;96048.53;5025934;28;20207;-63
2023/01/25 10:11:29;;;;;;;6.83;5.63;;;;;;;3.20;83.29;96044.41;5027390;28;20242;-63
2023/01/25 10:13:58;;;;;;;6.10;5.60;;;;;;;3.12;82.23;96039.31;5028455;28;20213;-67
2023/01/25 10:16:29;;;;;;;5.67;5.17;;;;;;;3.12;82.10;96034.28;5026646;28;20276;-66
2023/01/25 10:19:05;;;;;;;5.33;5.03;;;;;;;3.21;82.07;96031.88;5026165;28;20205;-65
2023/01/25 10:21:39;;;;;;;5.43;4.97;;;;;;;3.20;81.43;96026.84;5026710;28;20198;-66
2023/01/25 10:24:45;;;;;;;7.57;5.63;;;;;;;3.34;80.99;96025.28;5027515;28;21417;-65
2023/01/25 10:27:23;;;;;;;6.40;5.80;;;;;;;3.61;80.23;96022.19;5010017;28;20210;-67
2023/01/25 10:29:56;;;;;;;6.50;5.43;;;;;;;3.97;78.52;96019.94;5026740;28;20296;-67
2023/01/25 10:32:30;;;;;;;8.97;6.53;;;;;;;4.02;77.08;96023.34;5028080;28;20820;-66
2023/01/25 10:35:12;;;;;;;6.53;5.70;;;;;;;3.79;76.79;96018.97;5027286;28;20572;-67
2023/01/25 10:37:38;;;;;;;5.90;5.50;;;;;;;3.65;77.00;96012.19;5027104;28;20297;-67
2023/01/25 10:40:15;;;;;;;9.27;6.47;;;;;;;3.78;76.43;96008.06;5027238;28;20336;-67
2023/01/25 10:42:48;;;;;;;5.67;4.80;;;;;;;4.21;75.81;96000.81;5027337;28;20229;-66
2023/01/25 10:45:16;;;;;;;6.17;5.27;;;;;;;4.53;74.64;95996.81;5026458;28;20298;-67
2023/01/25 10:47:48;;;;;;;8.97;4.80;;;;;;;4.43;73.87;95993.41;5027879;28;20273;-68
2023/01/25 10:50:45;;;;;;;4.20;3.90;;;;;;;4.61;73.65;95995.16;5027444;28;20207;-66
2023/01/25 10:53:26;;;;;;;5.97;4.40;;;;;;;4.24;74.09;95988.25;5027523;28;20269;-67
2023/01/25 10:55:59;;;;;;;5.20;4.80;;;;;;;4.25;74.37;95989.94;5027869;28;20202;-64
2023/01/25 10:58:31;;;;;;;4.07;3.13;;;;;;;4.31;73.90;95989.97;5028230;28;20740;-66
2023/01/25 11:00:58;;;;;;;9.80;4.50;;;;;;;4.42;73.53;95975.78;5027849;28;20944;-64
2023/01/25 11:03:34;;;;;;;5.43;3.80;;;;;;;4.34;73.45;95990.84;5025964;28;20207;-66
2023/01/25 11:06:03;;;;;;;5.00;4.50;;;;;;;4.33;73.43;95984.13;5025631;28;20244;-64
2023/01/25 11:08:34;;;;;;;5.07;4.67;;;;;;;4.52;73.21;95969.09;5036248;28;20606;-68
2023/01/25 11:11:15;;;;;;;4.82;4.45;;;;;;;4.72;72.64;95977.56;5047615;28;20511;-64
2023/01/25 11:13:41;;;;;;;5.72;5.22;;;;;;;4.89;72.14;95970.09;5040682;28;20265;-67
2023/01/25 11:16:31;;;;;;;5.40;4.90;;;;;;;4.98;71.29;95960.84;5043283;28;20203;-68
2023/01/25 11:18:59;;;;;;;4.77;4.37;;;;;;;4.97;71.85;95960.84;5043581;28;20451;-69
2023/01/25 11:21:28;;;;;;;4.60;3.97;;;;;;;4.72;71.92;95960.78;5046167;28;20249;-68
2023/01/25 11:24:01;;;;;;;7.10;5.07;;;;;;;4.78;72.54;95947.38;5046362;28;20493;-68
2023/01/25 11:26:28;;;;;;;4.30;3.90;;;;;;;4.67;72.60;95951.56;5041696;28;20676;-68
2023/01/25 11:29:08;;;;;;;4.80;4.40;;;;;;;4.52;73.15;95951.47;5044559;28;20588;-69
2023/01/25 11:31:35;;;;;;;4.43;4.03;;;;;;;4.40;72.79;95959.84;5045243;28;20599;-68
2023/01/25 11:34:02;;;;;;;4.77;4.37;;;;;;;4.26;73.44;95961.44;5047440;28;20310;-68
2023/01/25 11:36:37;;;;;;;4.57;4.27;;;;;;;4.16;73.84;95949.66;5048254;28;20203;-67
2023/01/25 11:39:18;;;;;;;8.00;4.63;;;;;;;4.12;74.61;95938.72;5049277;28;20226;-68
2023/01/25 11:42:03;;;;;;;4.97;4.53;;;;;;;4.32;74.33;95932.13;5048329;28;20206;-69
2023/01/25 11:44:58;;;;;;;4.72;4.32;;;;;;;4.41;73.18;95928.81;5037762;28;20207;-67
2023/01/25 11:47:41;;;;;;;4.90;4.50;;;;;;;4.17;73.88;95926.19;5045671;28;20268;-68
2023/01/25 11:50:16;;;;;;;4.40;3.83;;;;;;;4.06;74.33;95916.91;5047275;28;20203;-69
2023/01/25 11:53:03;;;;;;;4.63;4.27;;;;;;;3.94;74.57;95919.38;5048899;28;20225;-70
2023/01/25 11:55:37;;;;;;;3.80;3.50;;;;;;;3.88;74.49;95904.22;5049786;28;20278;-69